sensor_id;sensor_type;location;lat;lon;timestamp;P1;durP1;ratioP1;P2;durP2;ratioP2
20792;SDS011;10556;-33.662;151.094;2022-09-09T00:03:40;4.00;;;2.40;;
20792;SDS011;10556;-33.662;151.094;2022-09-09T00:08:44;2.77;;;0.70;;
20792;SDS011;10556;-33.662;151.094;2022-09-09T00:13:48;2.60;;;1.10;;
20792;SDS011;10556;-33.662;151.094;2022-09-09T00:18:55;2.83;;;0.63;;
20792;SDS011;10556;-33.662;151.094;2022-09-09T00:23:59;2.63;;;0.53;;
20792;SDS011;10556;-33.662;151.094;2022-09-09T00:29:05;2.20;;;0.67;;
20792;SDS011;10556;-33.662;151.094;2022-09-09T00:34:12;0.40;;;0.40;;
20792;SDS011;10556;-33.662;151.094;2022-09-09T00:39:17;2.10;;;0.70;;
20792;SDS011;10556;-33.662;151.094;2022-09-09T00:44:25;3.97;;;0.80;;
20792;SDS011;10556;-33.662;151.094;2022-09-09T00:49:32;1.30;;;0.50;;
20792;SDS011;10556;-33.662;151.094;2022-09-09T00:54:40;1.43;;;0.30;;
20792;SDS011;10556;-33.662;151.094;2022-09-09T00:59:48;1.57;;;0.60;;
20792;SDS011;10556;-33.662;151.094;2022-09-09T01:04:51;0.70;;;0.57;;
20792;SDS011;10556;-33.662;151.094;2022-09-09T01:09:54;1.23;;;0.40;;
20792;SDS011;10556;-33.662;151.094;2022-09-09T01:15:00;1.00;;;0.40;;
20792;SDS011;10556;-33.662;151.094;2022-09-09T01:20:04;0.60;;;0.40;;
20792;SDS011;10556;-33.662;151.094;2022-09-09T01:25:19;1.67;;;1.57;;
20792;SDS011;10556;-33.662;151.094;2022-09-09T01:30:24;1.20;;;0.40;;
20792;SDS011;10556;-33.662;151.094;2022-09-09T01:35:29;0.80;;;0.50;;
20792;SDS011;10556;-33.662;151.094;2022-09-09T01:40:32;0.50;;;0.37;;
20792;SDS011;10556;-33.662;151.094;2022-09-09T01:45:36;2.40;;;0.20;;
20792;SDS011;10556;-33.662;151.094;2022-09-09T01:50:37;0.23;;;0.20;;
20792;SDS011;10556;-33.662;151.094;2022-09-09T01:55:39;1.03;;;0.30;;
20792;SDS011;10556;-33.662;151.094;2022-09-09T02:00:43;1.80;;;0.50;;
20792;SDS011;10556;-33.662;151.094;2022-09-09T02:05:47;1.63;;;0.40;;
20792;SDS011;10556;-33.662;151.094;2022-09-09T02:10:51;2.90;;;0.40;;
20792;SDS011;10556;-33.662;151.094;2022-09-09T02:15:58;0.30;;;0.30;;
20792;SDS011;10556;-33.662;151.094;2022-09-09T02:21:01;1.47;;;0.23;;
20792;SDS011;10556;-33.662;151.094;2022-09-09T02:26:03;0.30;;;0.30;;
20792;SDS011;10556;-33.662;151.094;2022-09-09T02:31:06;0.50;;;0.40;;
20792;SDS011;10556;-33.662;151.094;2022-09-09T02:36:08;0.83;;;0.30;;
20792;SDS011;10556;-33.662;151.094;2022-09-09T02:41:09;1.63;;;0.43;;
20792;SDS011;10556;-33.662;151.094;2022-09-09T02:46:17;2.57;;;0.23;;
20792;SDS011;10556;-33.662;151.094;2022-09-09T02:51:23;1.17;;;0.27;;
20792;SDS011;10556;-33.662;151.094;2022-09-09T02:56:26;1.00;;;0.20;;
20792;SDS011;10556;-33.662;151.094;2022-09-09T03:01:30;1.90;;;0.20;;
20792;SDS011;10556;-33.662;151.094;2022-09-09T03:06:31;0.30;;;0.30;;
20792;SDS011;10556;-33.662;151.094;2022-09-09T03:11:33;3.07;;;0.30;;
20792;SDS011;10556;-33.662;151.094;2022-09-09T03:16:36;0.20;;;0.20;;
20792;SDS011;10556;-33.662;151.094;2022-09-09T03:21:37;0.20;;;0.20;;
20792;SDS011;10556;-33.662;151.094;2022-09-09T03:26:39;0.20;;;0.20;;
20792;SDS011;10556;-33.662;151.094;2022-09-09T03:31:42;0.33;;;0.30;;
20792;SDS011;10556;-33.662;151.094;2022-09-09T03:36:44;0.83;;;0.23;;
20792;SDS011;10556;-33.662;151.094;2022-09-09T03:41:45;0.57;;;0.30;;
20792;SDS011;10556;-33.662;151.094;2022-09-09T03:46:48;0.33;;;0.10;;
20792;SDS011;10556;-33.662;151.094;2022-09-09T03:51:50;0.30;;;0.30;;
20792;SDS011;10556;-33.662;151.094;2022-09-09T03:56:54;3.63;;;0.30;;
20792;SDS011;10556;-33.662;151.094;2022-09-09T04:01:58;1.17;;;0.43;;
20792;SDS011;10556;-33.662;151.094;2022-09-09T04:06:59;1.00;;;0.20;;
20792;SDS011;10556;-33.662;151.094;2022-09-09T04:12:00;1.80;;;0.20;;
20792;SDS011;10556;-33.662;151.094;2022-09-09T04:17:04;0.23;;;0.23;;
20792;SDS011;10556;-33.662;151.094;2022-09-09T04:22:05;0.83;;;0.23;;
20792;SDS011;10556;-33.662;151.094;2022-09-09T04:27:06;0.20;;;0.20;;
20792;SDS011;10556;-33.662;151.094;2022-09-09T04:32:10;0.13;;;0.10;;
20792;SDS011;10556;-33.662;151.094;2022-09-09T04:37:11;0.10;;;0.10;;
20792;SDS011;10556;-33.662;151.094;2022-09-09T04:42:12;3.00;;;0.27;;
20792;SDS011;10556;-33.662;151.094;2022-09-09T04:47:16;0.10;;;0.10;;
20792;SDS011;10556;-33.662;151.094;2022-09-09T04:52:17;0.07;;;0.07;;
20792;SDS011;10556;-33.662;151.094;2022-09-09T04:57:18;0.10;;;0.10;;
20792;SDS011;10556;-33.662;151.094;2022-09-09T05:02:22;1.10;;;0.20;;
20792;SDS011;10556;-33.662;151.094;2022-09-09T05:07:23;0.17;;;0.10;;
20792;SDS011;10556;-33.662;151.094;2022-09-09T05:12:25;0.47;;;0.10;;
20792;SDS011;10556;-33.662;151.094;2022-09-09T05:17:28;0.20;;;0.10;;
20792;SDS011;10556;-33.662;151.094;2022-09-09T05:22:29;0.03;;;0.03;;
20792;SDS011;10556;-33.662;151.094;2022-09-09T05:27:31;0.07;;;0.07;;
20792;SDS011;10556;-33.662;151.094;2022-09-09T05:32:36;0.10;;;0.10;;
20792;SDS011;10556;-33.662;151.094;2022-09-09T05:37:37;1.27;;;0.27;;
20792;SDS011;10556;-33.662;151.094;2022-09-09T05:42:39;0.47;;;0.30;;
20792;SDS011;10556;-33.662;151.094;2022-09-09T05:47:42;0.30;;;0.20;;
20792;SDS011;10556;-33.662;151.094;2022-09-09T05:52:43;0.50;;;0.20;;
20792;SDS011;10556;-33.662;151.094;2022-09-09T05:57:48;1.63;;;0.53;;
20792;SDS011;10556;-33.662;151.094;2022-09-09T06:02:52;0.57;;;0.40;;
20792;SDS011;10556;-33.662;151.094;2022-09-09T06:07:54;0.20;;;0.20;;
20792;SDS011;10556;-33.662;151.094;2022-09-09T06:12:55;0.10;;;0.10;;
20792;SDS011;10556;-33.662;151.094;2022-09-09T06:17:58;0.17;;;0.10;;
20792;SDS011;10556;-33.662;151.094;2022-09-09T06:23:00;4.60;;;4.20;;
20792;SDS011;10556;-33.662;151.094;2022-09-09T06:28:01;2.03;;;1.63;;
20792;SDS011;10556;-33.662;151.094;2022-09-09T06:33:04;5.83;;;5.23;;
20792;SDS011;10556;-33.662;151.094;2022-09-09T06:38:06;5.33;;;3.43;;
20792;SDS011;10556;-33.662;151.094;2022-09-09T06:43:07;4.43;;;1.47;;
20792;SDS011;10556;-33.662;151.094;2022-09-09T06:48:10;2.00;;;1.80;;
20792;SDS011;10556;-33.662;151.094;2022-09-09T06:53:12;1.47;;;0.60;;
20792;SDS011;10556;-33.662;151.094;2022-09-09T06:58:13;0.30;;;0.27;;
20792;SDS011;10556;-33.662;151.094;2022-09-09T07:03:16;0.50;;;0.30;;
20792;SDS011;10556;-33.662;151.094;2022-09-09T07:08:18;1.17;;;0.77;;
20792;SDS011;10556;-33.662;151.094;2022-09-09T07:13:19;0.70;;;0.70;;
20792;SDS011;10556;-33.662;151.094;2022-09-09T07:18:23;1.77;;;0.50;;
20792;SDS011;10556;-33.662;151.094;2022-09-09T07:23:24;2.13;;;0.50;;
20792;SDS011;10556;-33.662;151.094;2022-09-09T07:28:25;2.00;;;0.30;;
20792;SDS011;10556;-33.662;151.094;2022-09-09T07:33:29;1.57;;;0.73;;
20792;SDS011;10556;-33.662;151.094;2022-09-09T07:38:30;0.67;;;0.57;;
20792;SDS011;10556;-33.662;151.094;2022-09-09T07:43:32;0.60;;;0.20;;
20792;SDS011;10556;-33.662;151.094;2022-09-09T07:48:35;0.20;;;0.20;;
20792;SDS011;10556;-33.662;151.094;2022-09-09T07:53:36;1.17;;;0.30;;
20792;SDS011;10556;-33.662;151.094;2022-09-09T07:58:38;0.20;;;0.20;;
20792;SDS011;10556;-33.662;151.094;2022-09-09T08:03:41;0.10;;;0.10;;
20792;SDS011;10556;-33.662;151.094;2022-09-09T08:08:43;0.10;;;0.00;;
20792;SDS011;10556;-33.662;151.094;2022-09-09T08:13:44;2.93;;;1.50;;
20792;SDS011;10556;-33.662;151.094;2022-09-09T08:18:47;1.90;;;1.47;;
20792;SDS011;10556;-33.662;151.094;2022-09-09T08:23:50;2.00;;;0.77;;
20792;SDS011;10556;-33.662;151.094;2022-09-09T08:28:52;0.37;;;0.30;;
20792;SDS011;10556;-33.662;151.094;2022-09-09T08:33:56;0.20;;;0.20;;
20792;SDS011;10556;-33.662;151.094;2022-09-09T08:38:57;0.43;;;0.23;;
20792;SDS011;10556;-33.662;151.094;2022-09-09T08:44:03;0.30;;;0.30;;
20792;SDS011;10556;-33.662;151.094;2022-09-09T08:54:27;0.87;;;0.20;;
20792;SDS011;10556;-33.662;151.094;2022-09-09T08:59:32;0.20;;;0.20;;
20792;SDS011;10556;-33.662;151.094;2022-09-09T09:04:46;0.27;;;0.20;;
20792;SDS011;10556;-33.662;151.094;2022-09-09T09:09:54;0.70;;;0.30;;
20792;SDS011;10556;-33.662;151.094;2022-09-09T09:14:58;0.10;;;0.10;;
20792;SDS011;10556;-33.662;151.094;2022-09-09T09:20:00;1.13;;;0.10;;
20792;SDS011;10556;-33.662;151.094;2022-09-09T09:25:04;0.20;;;0.10;;
20792;SDS011;10556;-33.662;151.094;2022-09-09T09:30:14;0.10;;;0.10;;
20792;SDS011;10556;-33.662;151.094;2022-09-09T09:35:16;0.10;;;0.10;;
20792;SDS011;10556;-33.662;151.094;2022-09-09T09:40:19;0.20;;;0.17;;
20792;SDS011;10556;-33.662;151.094;2022-09-09T09:45:27;0.70;;;0.20;;
20792;SDS011;10556;-33.662;151.094;2022-09-09T09:50:28;0.10;;;0.10;;
20792;SDS011;10556;-33.662;151.094;2022-09-09T09:55:32;0.10;;;0.10;;
20792;SDS011;10556;-33.662;151.094;2022-09-09T10:00:34;0.30;;;0.20;;
20792;SDS011;10556;-33.662;151.094;2022-09-09T10:05:36;0.20;;;0.20;;
20792;SDS011;10556;-33.662;151.094;2022-09-09T10:10:42;0.20;;;0.20;;
20792;SDS011;10556;-33.662;151.094;2022-09-09T10:15:47;0.40;;;0.20;;
20792;SDS011;10556;-33.662;151.094;2022-09-09T10:20:52;0.50;;;0.10;;
20792;SDS011;10556;-33.662;151.094;2022-09-09T10:26:00;0.20;;;0.10;;
20792;SDS011;10556;-33.662;151.094;2022-09-09T10:31:07;2.00;;;0.10;;
20792;SDS011;10556;-33.662;151.094;2022-09-09T10:36:12;0.10;;;0.10;;
20792;SDS011;10556;-33.662;151.094;2022-09-09T10:41:18;0.27;;;0.17;;
20792;SDS011;10556;-33.662;151.094;2022-09-09T10:46:21;0.10;;;0.10;;
20792;SDS011;10556;-33.662;151.094;2022-09-09T10:51:25;1.90;;;0.20;;
20792;SDS011;10556;-33.662;151.094;2022-09-09T10:56:31;0.27;;;0.27;;
20792;SDS011;10556;-33.662;151.094;2022-09-09T11:01:34;0.17;;;0.10;;
20792;SDS011;10556;-33.662;151.094;2022-09-09T11:06:39;0.87;;;0.27;;
20792;SDS011;10556;-33.662;151.094;2022-09-09T11:11:43;0.30;;;0.30;;
20792;SDS011;10556;-33.662;151.094;2022-09-09T11:16:47;1.63;;;0.50;;
20792;SDS011;10556;-33.662;151.094;2022-09-09T11:21:51;0.33;;;0.27;;
20792;SDS011;10556;-33.662;151.094;2022-09-09T11:26:55;0.20;;;0.20;;
20792;SDS011;10556;-33.662;151.094;2022-09-09T11:32:01;0.20;;;0.10;;
20792;SDS011;10556;-33.662;151.094;2022-09-09T11:37:09;0.20;;;0.20;;
20792;SDS011;10556;-33.662;151.094;2022-09-09T11:42:18;0.00;;;0.00;;
20792;SDS011;10556;-33.662;151.094;2022-09-09T11:47:20;1.10;;;0.20;;
20792;SDS011;10556;-33.662;151.094;2022-09-09T11:52:22;0.00;;;0.00;;
20792;SDS011;10556;-33.662;151.094;2022-09-09T11:57:30;0.10;;;0.10;;
20792;SDS011;10556;-33.662;151.094;2022-09-09T12:02:33;1.70;;;0.10;;
20792;SDS011;10556;-33.662;151.094;2022-09-09T12:07:35;0.10;;;0.10;;
20792;SDS011;10556;-33.662;151.094;2022-09-09T12:12:40;0.43;;;0.20;;
20792;SDS011;10556;-33.662;151.094;2022-09-09T12:17:42;0.20;;;0.10;;
20792;SDS011;10556;-33.662;151.094;2022-09-09T12:22:52;0.10;;;0.00;;
20792;SDS011;10556;-33.662;151.094;2022-09-09T12:28:02;0.10;;;0.10;;
20792;SDS011;10556;-33.662;151.094;2022-09-09T12:33:08;0.10;;;0.10;;
20792;SDS011;10556;-33.662;151.094;2022-09-09T12:38:12;0.10;;;0.10;;
20792;SDS011;10556;-33.662;151.094;2022-09-09T12:43:20;0.20;;;0.20;;
20792;SDS011;10556;-33.662;151.094;2022-09-09T12:48:22;0.43;;;0.20;;
20792;SDS011;10556;-33.662;151.094;2022-09-09T12:53:26;0.70;;;0.20;;
20792;SDS011;10556;-33.662;151.094;2022-09-09T12:58:32;0.10;;;0.10;;
20792;SDS011;10556;-33.662;151.094;2022-09-09T13:03:41;0.23;;;0.10;;
20792;SDS011;10556;-33.662;151.094;2022-09-09T13:08:42;0.10;;;0.10;;
20792;SDS011;10556;-33.662;151.094;2022-09-09T13:13:49;0.27;;;0.00;;
20792;SDS011;10556;-33.662;151.094;2022-09-09T13:18:51;0.50;;;0.20;;
20792;SDS011;10556;-33.662;151.094;2022-09-09T13:23:53;0.10;;;0.00;;
20792;SDS011;10556;-33.662;151.094;2022-09-09T13:29:07;0.50;;;0.03;;
20792;SDS011;10556;-33.662;151.094;2022-09-09T13:34:12;0.17;;;0.10;;
20792;SDS011;10556;-33.662;151.094;2022-09-09T13:39:14;0.30;;;0.20;;
20792;SDS011;10556;-33.662;151.094;2022-09-09T13:44:19;0.30;;;0.23;;
20792;SDS011;10556;-33.662;151.094;2022-09-09T13:49:22;0.30;;;0.30;;
20792;SDS011;10556;-33.662;151.094;2022-09-09T13:54:23;0.57;;;0.20;;
20792;SDS011;10556;-33.662;151.094;2022-09-09T13:59:27;0.90;;;0.33;;
20792;SDS011;10556;-33.662;151.094;2022-09-09T14:04:28;0.37;;;0.27;;
20792;SDS011;10556;-33.662;151.094;2022-09-09T14:09:29;0.90;;;0.30;;
20792;SDS011;10556;-33.662;151.094;2022-09-09T14:14:33;0.20;;;0.20;;
20792;SDS011;10556;-33.662;151.094;2022-09-09T14:19:34;0.10;;;0.10;;
20792;SDS011;10556;-33.662;151.094;2022-09-09T14:24:35;0.43;;;0.13;;
20792;SDS011;10556;-33.662;151.094;2022-09-09T14:29:39;0.03;;;0.03;;
20792;SDS011;10556;-33.662;151.094;2022-09-09T14:34:40;0.03;;;0.03;;
20792;SDS011;10556;-33.662;151.094;2022-09-09T14:39:41;1.40;;;0.10;;
20792;SDS011;10556;-33.662;151.094;2022-09-09T14:44:45;0.37;;;0.10;;
20792;SDS011;10556;-33.662;151.094;2022-09-09T14:49:46;0.10;;;0.00;;
20792;SDS011;10556;-33.662;151.094;2022-09-09T14:54:47;0.57;;;0.10;;
20792;SDS011;10556;-33.662;151.094;2022-09-09T14:59:50;0.57;;;0.00;;
20792;SDS011;10556;-33.662;151.094;2022-09-09T15:04:52;1.03;;;0.10;;
20792;SDS011;10556;-33.662;151.094;2022-09-09T15:09:53;0.07;;;0.07;;
20792;SDS011;10556;-33.662;151.094;2022-09-09T15:14:56;0.10;;;0.00;;
20792;SDS011;10556;-33.662;151.094;2022-09-09T15:19:58;0.10;;;0.10;;
20792;SDS011;10556;-33.662;151.094;2022-09-09T15:24:59;0.00;;;0.00;;
20792;SDS011;10556;-33.662;151.094;2022-09-09T15:30:02;0.00;;;0.00;;
20792;SDS011;10556;-33.662;151.094;2022-09-09T15:35:04;0.10;;;0.00;;
20792;SDS011;10556;-33.662;151.094;2022-09-09T15:40:06;0.40;;;0.13;;
20792;SDS011;10556;-33.662;151.094;2022-09-09T15:45:09;0.20;;;0.10;;
20792;SDS011;10556;-33.662;151.094;2022-09-09T15:50:11;0.10;;;0.10;;
20792;SDS011;10556;-33.662;151.094;2022-09-09T15:55:12;0.10;;;0.10;;
20792;SDS011;10556;-33.662;151.094;2022-09-09T16:00:16;0.43;;;0.20;;
20792;SDS011;10556;-33.662;151.094;2022-09-09T16:05:17;0.20;;;0.10;;
20792;SDS011;10556;-33.662;151.094;2022-09-09T16:10:19;0.20;;;0.20;;
20792;SDS011;10556;-33.662;151.094;2022-09-09T16:15:22;0.30;;;0.30;;
20792;SDS011;10556;-33.662;151.094;2022-09-09T16:20:23;0.83;;;0.40;;
20792;SDS011;10556;-33.662;151.094;2022-09-09T16:25:25;0.90;;;0.50;;
20792;SDS011;10556;-33.662;151.094;2022-09-09T16:30:28;2.67;;;0.20;;
20792;SDS011;10556;-33.662;151.094;2022-09-09T16:35:29;0.20;;;0.20;;
20792;SDS011;10556;-33.662;151.094;2022-09-09T16:40:31;0.20;;;0.20;;
20792;SDS011;10556;-33.662;151.094;2022-09-09T16:45:36;0.30;;;0.20;;
20792;SDS011;10556;-33.662;151.094;2022-09-09T16:50:41;0.57;;;0.40;;
20792;SDS011;10556;-33.662;151.094;2022-09-09T16:55:43;0.80;;;0.70;;
20792;SDS011;10556;-33.662;151.094;2022-09-09T17:00:46;0.70;;;0.40;;
20792;SDS011;10556;-33.662;151.094;2022-09-09T17:05:47;0.73;;;0.40;;
20792;SDS011;10556;-33.662;151.094;2022-09-09T17:10:49;1.97;;;0.20;;
20792;SDS011;10556;-33.662;151.094;2022-09-09T17:15:52;0.87;;;0.20;;
20792;SDS011;10556;-33.662;151.094;2022-09-09T17:20:54;0.23;;;0.17;;
20792;SDS011;10556;-33.662;151.094;2022-09-09T17:25:58;1.60;;;0.00;;
20792;SDS011;10556;-33.662;151.094;2022-09-09T17:31:01;0.03;;;0.03;;
20792;SDS011;10556;-33.662;151.094;2022-09-09T17:36:06;0.33;;;0.00;;
20792;SDS011;10556;-33.662;151.094;2022-09-09T17:41:08;0.70;;;0.20;;
20792;SDS011;10556;-33.662;151.094;2022-09-09T17:46:12;0.40;;;0.10;;
20792;SDS011;10556;-33.662;151.094;2022-09-09T17:51:15;0.87;;;0.10;;
20792;SDS011;10556;-33.662;151.094;2022-09-09T17:56:19;0.20;;;0.10;;
20792;SDS011;10556;-33.662;151.094;2022-09-09T18:01:22;0.57;;;0.20;;
20792;SDS011;10556;-33.662;151.094;2022-09-09T18:06:25;0.00;;;0.00;;
20792;SDS011;10556;-33.662;151.094;2022-09-09T18:11:28;0.40;;;0.20;;
20792;SDS011;10556;-33.662;151.094;2022-09-09T18:16:32;0.10;;;0.10;;
20792;SDS011;10556;-33.662;151.094;2022-09-09T18:21:33;0.13;;;0.10;;
20792;SDS011;10556;-33.662;151.094;2022-09-09T18:26:35;0.43;;;0.10;;
20792;SDS011;10556;-33.662;151.094;2022-09-09T18:31:38;0.10;;;0.10;;
20792;SDS011;10556;-33.662;151.094;2022-09-09T18:36:40;0.20;;;0.10;;
20792;SDS011;10556;-33.662;151.094;2022-09-09T18:41:42;0.80;;;0.23;;
20792;SDS011;10556;-33.662;151.094;2022-09-09T18:46:46;0.87;;;0.10;;
20792;SDS011;10556;-33.662;151.094;2022-09-09T18:51:47;0.10;;;0.10;;
20792;SDS011;10556;-33.662;151.094;2022-09-09T18:56:49;0.17;;;0.10;;
20792;SDS011;10556;-33.662;151.094;2022-09-09T19:01:52;0.60;;;0.20;;
20792;SDS011;10556;-33.662;151.094;2022-09-09T19:06:54;0.73;;;0.10;;
20792;SDS011;10556;-33.662;151.094;2022-09-09T19:11:55;0.37;;;0.10;;
20792;SDS011;10556;-33.662;151.094;2022-09-09T19:16:58;0.47;;;0.10;;
20792;SDS011;10556;-33.662;151.094;2022-09-09T19:22:00;1.40;;;0.20;;
20792;SDS011;10556;-33.662;151.094;2022-09-09T19:27:03;1.00;;;0.10;;
20792;SDS011;10556;-33.662;151.094;2022-09-09T19:32:06;0.53;;;0.20;;
20792;SDS011;10556;-33.662;151.094;2022-09-09T19:37:07;0.50;;;0.10;;
20792;SDS011;10556;-33.662;151.094;2022-09-09T19:42:09;1.17;;;0.10;;
20792;SDS011;10556;-33.662;151.094;2022-09-09T19:47:12;1.70;;;0.00;;
20792;SDS011;10556;-33.662;151.094;2022-09-09T19:52:14;0.10;;;0.10;;
20792;SDS011;10556;-33.662;151.094;2022-09-09T19:57:16;0.77;;;0.10;;
20792;SDS011;10556;-33.662;151.094;2022-09-09T20:02:19;0.00;;;0.00;;
20792;SDS011;10556;-33.662;151.094;2022-09-09T20:07:20;0.63;;;0.20;;
20792;SDS011;10556;-33.662;151.094;2022-09-09T20:12:22;0.10;;;0.10;;
20792;SDS011;10556;-33.662;151.094;2022-09-09T20:17:25;0.20;;;0.10;;
20792;SDS011;10556;-33.662;151.094;2022-09-09T20:22:26;0.63;;;0.10;;
20792;SDS011;10556;-33.662;151.094;2022-09-09T20:27:28;0.23;;;0.10;;
20792;SDS011;10556;-33.662;151.094;2022-09-09T20:32:31;0.23;;;0.10;;
20792;SDS011;10556;-33.662;151.094;2022-09-09T20:37:32;0.10;;;0.10;;
20792;SDS011;10556;-33.662;151.094;2022-09-09T20:42:34;0.27;;;0.10;;
20792;SDS011;10556;-33.662;151.094;2022-09-09T20:47:37;0.10;;;0.10;;
20792;SDS011;10556;-33.662;151.094;2022-09-09T20:52:39;0.33;;;0.20;;
20792;SDS011;10556;-33.662;151.094;2022-09-09T20:57:40;0.50;;;0.10;;
20792;SDS011;10556;-33.662;151.094;2022-09-09T21:02:43;0.40;;;0.10;;
20792;SDS011;10556;-33.662;151.094;2022-09-09T21:07:45;0.00;;;0.00;;
20792;SDS011;10556;-33.662;151.094;2022-09-09T21:12:46;0.20;;;0.10;;
20792;SDS011;10556;-33.662;151.094;2022-09-09T21:17:49;0.20;;;0.20;;
20792;SDS011;10556;-33.662;151.094;2022-09-09T21:22:51;0.13;;;0.07;;
20792;SDS011;10556;-33.662;151.094;2022-09-09T21:27:52;1.07;;;0.20;;
20792;SDS011;10556;-33.662;151.094;2022-09-09T21:32:55;0.80;;;0.20;;
20792;SDS011;10556;-33.662;151.094;2022-09-09T21:37:57;1.13;;;0.10;;
20792;SDS011;10556;-33.662;151.094;2022-09-09T21:42:58;0.10;;;0.10;;
20792;SDS011;10556;-33.662;151.094;2022-09-09T21:48:01;1.23;;;0.10;;
20792;SDS011;10556;-33.662;151.094;2022-09-09T21:53:03;0.10;;;0.10;;
20792;SDS011;10556;-33.662;151.094;2022-09-09T21:58:04;0.10;;;0.10;;
20792;SDS011;10556;-33.662;151.094;2022-09-09T22:03:07;0.20;;;0.10;;
20792;SDS011;10556;-33.662;151.094;2022-09-09T22:08:09;0.40;;;0.10;;
20792;SDS011;10556;-33.662;151.094;2022-09-09T22:13:10;0.60;;;0.10;;
20792;SDS011;10556;-33.662;151.094;2022-09-09T22:18:14;0.20;;;0.10;;
20792;SDS011;10556;-33.662;151.094;2022-09-09T22:23:15;0.33;;;0.20;;
20792;SDS011;10556;-33.662;151.094;2022-09-09T22:28:17;0.30;;;0.10;;
20792;SDS011;10556;-33.662;151.094;2022-09-09T22:33:20;0.43;;;0.20;;
20792;SDS011;10556;-33.662;151.094;2022-09-09T22:38:21;0.33;;;0.10;;
20792;SDS011;10556;-33.662;151.094;2022-09-09T22:43:22;0.77;;;0.23;;
20792;SDS011;10556;-33.662;151.094;2022-09-09T22:48:26;0.10;;;0.10;;
20792;SDS011;10556;-33.662;151.094;2022-09-09T22:53:27;0.67;;;0.20;;
20792;SDS011;10556;-33.662;151.094;2022-09-09T22:58:29;0.00;;;0.00;;
20792;SDS011;10556;-33.662;151.094;2022-09-09T23:03:32;0.20;;;0.17;;
20792;SDS011;10556;-33.662;151.094;2022-09-09T23:08:34;0.30;;;0.17;;
20792;SDS011;10556;-33.662;151.094;2022-09-09T23:13:36;0.10;;;0.03;;
20792;SDS011;10556;-33.662;151.094;2022-09-09T23:18:40;0.10;;;0.10;;
20792;SDS011;10556;-33.662;151.094;2022-09-09T23:23:41;0.87;;;0.20;;
20792;SDS011;10556;-33.662;151.094;2022-09-09T23:28:43;0.30;;;0.20;;
20792;SDS011;10556;-33.662;151.094;2022-09-09T23:33:46;0.50;;;0.20;;
20792;SDS011;10556;-33.662;151.094;2022-09-09T23:38:47;0.67;;;0.10;;
20792;SDS011;10556;-33.662;151.094;2022-09-09T23:43:49;0.50;;;0.10;;
20792;SDS011;10556;-33.662;151.094;2022-09-09T23:48:53;0.57;;;0.10;;
20792;SDS011;10556;-33.662;151.094;2022-09-09T23:53:54;0.93;;;0.10;;
20792;SDS011;10556;-33.662;151.094;2022-09-09T23:58:56;0.30;;;0.10;;
